sensor_id;sensor_type;location;lat;lon;timestamp;temperature;humidity
21950;DHT22;11139;51.284;7.226;2023-08-01T00:02:07;17.10;99.90
21950;DHT22;11139;51.284;7.226;2023-08-01T00:04:32;17.10;99.90
21950;DHT22;11139;51.284;7.226;2023-08-01T00:06:58;17.10;99.90
21950;DHT22;11139;51.284;7.226;2023-08-01T00:09:23;17.10;99.90
21950;DHT22;11139;51.284;7.226;2023-08-01T00:11:49;17.10;99.90
21950;DHT22;11139;51.284;7.226;2023-08-01T00:14:14;17.10;99.90
21950;DHT22;11139;51.284;7.226;2023-08-01T00:16:40;17.10;99.90
21950;DHT22;11139;51.284;7.226;2023-08-01T00:19:05;17.10;99.90
21950;DHT22;11139;51.284;7.226;2023-08-01T00:21:31;17.10;99.90
21950;DHT22;11139;51.284;7.226;2023-08-01T00:23:57;17.10;99.90
21950;DHT22;11139;51.284;7.226;2023-08-01T00:26:22;17.10;99.90
21950;DHT22;11139;51.284;7.226;2023-08-01T00:28:48;17.10;99.90
21950;DHT22;11139;51.284;7.226;2023-08-01T00:31:14;17.10;99.90
21950;DHT22;11139;51.284;7.226;2023-08-01T00:33:39;17.10;99.90
21950;DHT22;11139;51.284;7.226;2023-08-01T00:36:05;17.10;99.90
21950;DHT22;11139;51.284;7.226;2023-08-01T00:38:35;17.10;99.90
21950;DHT22;11139;51.284;7.226;2023-08-01T00:41:01;17.10;99.90
21950;DHT22;11139;51.284;7.226;2023-08-01T00:43:26;17.10;99.90
21950;DHT22;11139;51.284;7.226;2023-08-01T00:45:52;17.10;99.90
21950;DHT22;11139;51.284;7.226;2023-08-01T00:48:19;17.10;99.90
21950;DHT22;11139;51.284;7.226;2023-08-01T00:50:45;17.10;99.90
21950;DHT22;11139;51.284;7.226;2023-08-01T00:53:10;17.10;99.90
21950;DHT22;11139;51.284;7.226;2023-08-01T00:55:37;17.10;99.90
21950;DHT22;11139;51.284;7.226;2023-08-01T00:58:02;17.10;99.90
21950;DHT22;11139;51.284;7.226;2023-08-01T01:00:28;17.10;99.90
21950;DHT22;11139;51.284;7.226;2023-08-01T01:02:53;17.10;99.90
21950;DHT22;11139;51.284;7.226;2023-08-01T01:05:19;17.10;99.90
21950;DHT22;11139;51.284;7.226;2023-08-01T01:07:45;17.10;99.90
21950;DHT22;11139;51.284;7.226;2023-08-01T01:10:11;17.10;99.90
21950;DHT22;11139;51.284;7.226;2023-08-01T01:12:37;17.10;99.90
21950;DHT22;11139;51.284;7.226;2023-08-01T01:15:02;17.10;99.90
21950;DHT22;11139;51.284;7.226;2023-08-01T01:17:28;17.10;99.90
21950;DHT22;11139;51.284;7.226;2023-08-01T01:19:53;17.10;99.90
21950;DHT22;11139;51.284;7.226;2023-08-01T01:22:19;17.10;99.90
21950;DHT22;11139;51.284;7.226;2023-08-01T01:24:45;17.10;99.90
21950;DHT22;11139;51.284;7.226;2023-08-01T01:27:11;17.10;99.90
21950;DHT22;11139;51.284;7.226;2023-08-01T01:29:37;17.00;99.90
21950;DHT22;11139;51.284;7.226;2023-08-01T01:32:03;17.00;99.90
21950;DHT22;11139;51.284;7.226;2023-08-01T01:34:28;17.00;99.90
21950;DHT22;11139;51.284;7.226;2023-08-01T01:36:54;17.10;99.90
21950;DHT22;11139;51.284;7.226;2023-08-01T01:39:19;17.00;99.90
21950;DHT22;11139;51.284;7.226;2023-08-01T01:41:45;17.00;99.90
21950;DHT22;11139;51.284;7.226;2023-08-01T01:44:11;17.00;99.90
21950;DHT22;11139;51.284;7.226;2023-08-01T01:46:36;17.00;99.90
21950;DHT22;11139;51.284;7.226;2023-08-01T01:49:02;17.10;99.90
21950;DHT22;11139;51.284;7.226;2023-08-01T01:51:28;17.00;99.90
21950;DHT22;11139;51.284;7.226;2023-08-01T01:53:53;17.00;99.90
21950;DHT22;11139;51.284;7.226;2023-08-01T01:56:19;17.10;99.90
21950;DHT22;11139;51.284;7.226;2023-08-01T01:58:44;17.00;99.90
21950;DHT22;11139;51.284;7.226;2023-08-01T02:01:09;17.00;99.90
21950;DHT22;11139;51.284;7.226;2023-08-01T02:03:35;17.10;99.90
21950;DHT22;11139;51.284;7.226;2023-08-01T02:06:02;17.00;99.90
21950;DHT22;11139;51.284;7.226;2023-08-01T02:08:28;17.00;99.90
21950;DHT22;11139;51.284;7.226;2023-08-01T02:10:54;17.00;99.90
21950;DHT22;11139;51.284;7.226;2023-08-01T02:13:20;17.00;99.90
21950;DHT22;11139;51.284;7.226;2023-08-01T02:15:46;17.00;99.90
21950;DHT22;11139;51.284;7.226;2023-08-01T02:18:11;17.00;99.90
21950;DHT22;11139;51.284;7.226;2023-08-01T02:20:37;17.00;99.90
21950;DHT22;11139;51.284;7.226;2023-08-01T02:23:03;17.00;99.90
21950;DHT22;11139;51.284;7.226;2023-08-01T02:25:28;17.00;99.90
21950;DHT22;11139;51.284;7.226;2023-08-01T02:27:54;17.00;99.90
21950;DHT22;11139;51.284;7.226;2023-08-01T02:30:19;17.00;99.90
21950;DHT22;11139;51.284;7.226;2023-08-01T02:32:45;17.00;99.90
21950;DHT22;11139;51.284;7.226;2023-08-01T02:35:10;17.00;99.90
21950;DHT22;11139;51.284;7.226;2023-08-01T02:37:36;17.00;99.90
21950;DHT22;11139;51.284;7.226;2023-08-01T02:40:02;17.00;99.90
21950;DHT22;11139;51.284;7.226;2023-08-01T02:42:32;17.00;99.90
21950;DHT22;11139;51.284;7.226;2023-08-01T02:44:58;17.00;99.90
21950;DHT22;11139;51.284;7.226;2023-08-01T02:47:23;17.00;99.90
21950;DHT22;11139;51.284;7.226;2023-08-01T02:49:49;17.00;99.90
21950;DHT22;11139;51.284;7.226;2023-08-01T02:52:14;17.00;99.90
21950;DHT22;11139;51.284;7.226;2023-08-01T02:54:39;17.00;99.90
21950;DHT22;11139;51.284;7.226;2023-08-01T02:57:05;17.00;99.90
21950;DHT22;11139;51.284;7.226;2023-08-01T02:59:31;17.00;99.90
21950;DHT22;11139;51.284;7.226;2023-08-01T03:01:58;17.00;99.90
21950;DHT22;11139;51.284;7.226;2023-08-01T03:04:24;17.00;99.90
21950;DHT22;11139;51.284;7.226;2023-08-01T03:06:50;17.00;99.90
21950;DHT22;11139;51.284;7.226;2023-08-01T03:09:15;17.00;99.90
21950;DHT22;11139;51.284;7.226;2023-08-01T03:11:41;17.00;99.90
21950;DHT22;11139;51.284;7.226;2023-08-01T03:14:06;17.00;99.90
21950;DHT22;11139;51.284;7.226;2023-08-01T03:16:32;17.00;99.90
21950;DHT22;11139;51.284;7.226;2023-08-01T03:18:58;17.00;99.90
21950;DHT22;11139;51.284;7.226;2023-08-01T03:21:31;16.90;99.90
21950;DHT22;11139;51.284;7.226;2023-08-01T03:23:56;17.00;99.90
21950;DHT22;11139;51.284;7.226;2023-08-01T03:26:22;16.90;99.90
21950;DHT22;11139;51.284;7.226;2023-08-01T03:28:47;16.90;99.90
21950;DHT22;11139;51.284;7.226;2023-08-01T03:31:13;16.90;99.90
21950;DHT22;11139;51.284;7.226;2023-08-01T03:33:38;16.90;99.90
21950;DHT22;11139;51.284;7.226;2023-08-01T03:36:04;16.90;99.90
21950;DHT22;11139;51.284;7.226;2023-08-01T03:38:32;16.90;99.90
21950;DHT22;11139;51.284;7.226;2023-08-01T03:40:57;16.90;99.90
21950;DHT22;11139;51.284;7.226;2023-08-01T03:43:23;17.00;99.90
21950;DHT22;11139;51.284;7.226;2023-08-01T03:45:49;16.90;99.90
21950;DHT22;11139;51.284;7.226;2023-08-01T03:48:15;16.90;99.90
21950;DHT22;11139;51.284;7.226;2023-08-01T03:53:08;16.90;99.90
21950;DHT22;11139;51.284;7.226;2023-08-01T03:55:33;16.90;99.90
21950;DHT22;11139;51.284;7.226;2023-08-01T03:57:59;16.90;99.90
21950;DHT22;11139;51.284;7.226;2023-08-01T04:00:24;16.90;99.90
21950;DHT22;11139;51.284;7.226;2023-08-01T04:02:50;16.80;99.90
21950;DHT22;11139;51.284;7.226;2023-08-01T04:05:16;16.90;99.90
21950;DHT22;11139;51.284;7.226;2023-08-01T04:07:41;16.90;99.90
21950;DHT22;11139;51.284;7.226;2023-08-01T04:10:07;16.80;99.90
21950;DHT22;11139;51.284;7.226;2023-08-01T04:12:33;16.80;99.90
21950;DHT22;11139;51.284;7.226;2023-08-01T04:14:59;16.90;99.90
21950;DHT22;11139;51.284;7.226;2023-08-01T04:17:24;16.80;99.90
21950;DHT22;11139;51.284;7.226;2023-08-01T04:19:50;16.80;99.90
21950;DHT22;11139;51.284;7.226;2023-08-01T04:22:15;16.80;99.90
21950;DHT22;11139;51.284;7.226;2023-08-01T04:24:41;16.80;99.90
21950;DHT22;11139;51.284;7.226;2023-08-01T04:27:07;16.80;99.90
21950;DHT22;11139;51.284;7.226;2023-08-01T04:29:32;16.80;99.90
21950;DHT22;11139;51.284;7.226;2023-08-01T04:31:58;16.80;99.90
21950;DHT22;11139;51.284;7.226;2023-08-01T04:34:23;16.80;99.90
21950;DHT22;11139;51.284;7.226;2023-08-01T04:36:49;16.80;99.90
21950;DHT22;11139;51.284;7.226;2023-08-01T04:39:14;16.80;99.90
21950;DHT22;11139;51.284;7.226;2023-08-01T04:41:39;16.70;99.90
21950;DHT22;11139;51.284;7.226;2023-08-01T04:44:05;16.70;99.90
21950;DHT22;11139;51.284;7.226;2023-08-01T04:46:31;16.80;99.90
21950;DHT22;11139;51.284;7.226;2023-08-01T04:48:57;16.70;99.90
21950;DHT22;11139;51.284;7.226;2023-08-01T04:51:22;16.70;99.90
21950;DHT22;11139;51.284;7.226;2023-08-01T04:53:48;16.70;99.90
21950;DHT22;11139;51.284;7.226;2023-08-01T04:56:13;16.80;99.90
21950;DHT22;11139;51.284;7.226;2023-08-01T04:58:39;16.70;99.90
21950;DHT22;11139;51.284;7.226;2023-08-01T05:01:04;16.70;99.90
21950;DHT22;11139;51.284;7.226;2023-08-01T05:03:30;16.70;99.90
21950;DHT22;11139;51.284;7.226;2023-08-01T05:05:55;16.70;99.90
21950;DHT22;11139;51.284;7.226;2023-08-01T05:08:21;16.70;99.90
21950;DHT22;11139;51.284;7.226;2023-08-01T05:10:46;16.70;99.90
21950;DHT22;11139;51.284;7.226;2023-08-01T05:13:12;16.70;99.90
21950;DHT22;11139;51.284;7.226;2023-08-01T05:15:37;16.70;99.90
21950;DHT22;11139;51.284;7.226;2023-08-01T05:18:03;16.70;99.90
21950;DHT22;11139;51.284;7.226;2023-08-01T05:20:28;16.70;99.90
21950;DHT22;11139;51.284;7.226;2023-08-01T05:22:59;16.70;99.90
21950;DHT22;11139;51.284;7.226;2023-08-01T05:25:24;16.60;99.90
21950;DHT22;11139;51.284;7.226;2023-08-01T05:27:50;16.70;99.90
21950;DHT22;11139;51.284;7.226;2023-08-01T05:30:15;16.60;99.90
21950;DHT22;11139;51.284;7.226;2023-08-01T05:32:41;16.60;99.90
21950;DHT22;11139;51.284;7.226;2023-08-01T05:35:09;16.60;99.90
21950;DHT22;11139;51.284;7.226;2023-08-01T05:37:34;16.60;99.90
21950;DHT22;11139;51.284;7.226;2023-08-01T05:40:00;16.70;99.90
21950;DHT22;11139;51.284;7.226;2023-08-01T05:42:26;16.60;99.90
21950;DHT22;11139;51.284;7.226;2023-08-01T05:44:51;16.70;99.90
21950;DHT22;11139;51.284;7.226;2023-08-01T05:47:17;16.60;99.90
21950;DHT22;11139;51.284;7.226;2023-08-01T05:49:42;16.60;99.90
21950;DHT22;11139;51.284;7.226;2023-08-01T05:52:08;16.60;99.90
21950;DHT22;11139;51.284;7.226;2023-08-01T05:54:33;16.60;99.90
21950;DHT22;11139;51.284;7.226;2023-08-01T05:56:59;16.60;99.90
21950;DHT22;11139;51.284;7.226;2023-08-01T05:59:24;16.60;99.90
21950;DHT22;11139;51.284;7.226;2023-08-01T06:01:50;16.60;99.90
21950;DHT22;11139;51.284;7.226;2023-08-01T06:04:15;16.60;99.90
21950;DHT22;11139;51.284;7.226;2023-08-01T06:06:40;16.60;99.90
21950;DHT22;11139;51.284;7.226;2023-08-01T06:09:06;16.60;99.90
21950;DHT22;11139;51.284;7.226;2023-08-01T06:11:31;16.60;99.90
21950;DHT22;11139;51.284;7.226;2023-08-01T06:13:58;16.60;99.90
21950;DHT22;11139;51.284;7.226;2023-08-01T06:16:24;16.60;99.90
21950;DHT22;11139;51.284;7.226;2023-08-01T06:18:50;16.60;99.90
21950;DHT22;11139;51.284;7.226;2023-08-01T06:21:15;16.60;99.90
21950;DHT22;11139;51.284;7.226;2023-08-01T06:23:40;16.50;99.90
21950;DHT22;11139;51.284;7.226;2023-08-01T06:26:06;16.50;99.90
21950;DHT22;11139;51.284;7.226;2023-08-01T06:28:32;16.50;99.90
21950;DHT22;11139;51.284;7.226;2023-08-01T06:30:57;16.50;99.90
21950;DHT22;11139;51.284;7.226;2023-08-01T06:33:23;16.50;99.90
21950;DHT22;11139;51.284;7.226;2023-08-01T06:35:48;16.60;99.90
21950;DHT22;11139;51.284;7.226;2023-08-01T06:38:14;16.50;99.90
21950;DHT22;11139;51.284;7.226;2023-08-01T06:40:39;16.50;99.90
21950;DHT22;11139;51.284;7.226;2023-08-01T06:43:05;16.50;99.90
21950;DHT22;11139;51.284;7.226;2023-08-01T06:45:33;16.50;99.90
21950;DHT22;11139;51.284;7.226;2023-08-01T06:47:59;16.50;99.90
21950;DHT22;11139;51.284;7.226;2023-08-01T06:50:25;16.50;99.90
21950;DHT22;11139;51.284;7.226;2023-08-01T06:52:50;16.50;99.90
21950;DHT22;11139;51.284;7.226;2023-08-01T06:55:16;16.50;99.90
21950;DHT22;11139;51.284;7.226;2023-08-01T06:57:41;16.50;99.90
21950;DHT22;11139;51.284;7.226;2023-08-01T07:00:07;16.50;99.90
21950;DHT22;11139;51.284;7.226;2023-08-01T07:02:33;16.50;99.90
21950;DHT22;11139;51.284;7.226;2023-08-01T07:04:58;16.50;99.90
21950;DHT22;11139;51.284;7.226;2023-08-01T07:07:24;16.50;99.90
21950;DHT22;11139;51.284;7.226;2023-08-01T07:09:49;16.50;99.90
21950;DHT22;11139;51.284;7.226;2023-08-01T07:12:15;16.50;99.90
21950;DHT22;11139;51.284;7.226;2023-08-01T07:14:40;16.50;99.90
21950;DHT22;11139;51.284;7.226;2023-08-01T07:17:06;16.50;99.90
21950;DHT22;11139;51.284;7.226;2023-08-01T07:19:31;16.40;99.90
21950;DHT22;11139;51.284;7.226;2023-08-01T07:21:57;16.50;99.90
21950;DHT22;11139;51.284;7.226;2023-08-01T07:24:22;16.50;99.90
21950;DHT22;11139;51.284;7.226;2023-08-01T07:26:48;16.40;99.90
21950;DHT22;11139;51.284;7.226;2023-08-01T07:29:13;16.40;99.90
21950;DHT22;11139;51.284;7.226;2023-08-01T07:31:41;16.40;99.90
21950;DHT22;11139;51.284;7.226;2023-08-01T07:34:07;16.40;99.90
21950;DHT22;11139;51.284;7.226;2023-08-01T07:36:32;16.40;99.90
21950;DHT22;11139;51.284;7.226;2023-08-01T07:38:58;16.40;99.90
21950;DHT22;11139;51.284;7.226;2023-08-01T07:41:23;16.40;99.90
21950;DHT22;11139;51.284;7.226;2023-08-01T07:43:49;16.40;99.90
21950;DHT22;11139;51.284;7.226;2023-08-01T07:46:14;16.40;99.90
21950;DHT22;11139;51.284;7.226;2023-08-01T07:48:40;16.40;99.90
21950;DHT22;11139;51.284;7.226;2023-08-01T07:51:05;16.40;99.90
21950;DHT22;11139;51.284;7.226;2023-08-01T07:53:35;16.40;99.90
21950;DHT22;11139;51.284;7.226;2023-08-01T07:56:01;16.40;99.90
21950;DHT22;11139;51.284;7.226;2023-08-01T07:58:27;16.50;99.90
21950;DHT22;11139;51.284;7.226;2023-08-01T08:00:53;16.50;99.90
21950;DHT22;11139;51.284;7.226;2023-08-01T08:03:19;16.40;99.90
21950;DHT22;11139;51.284;7.226;2023-08-01T08:05:47;16.40;99.90
21950;DHT22;11139;51.284;7.226;2023-08-01T08:08:13;16.40;99.90
21950;DHT22;11139;51.284;7.226;2023-08-01T08:10:38;16.40;99.90
21950;DHT22;11139;51.284;7.226;2023-08-01T08:13:04;16.50;99.90
21950;DHT22;11139;51.284;7.226;2023-08-01T08:15:29;16.40;99.90
21950;DHT22;11139;51.284;7.226;2023-08-01T08:17:59;16.50;99.90
21950;DHT22;11139;51.284;7.226;2023-08-01T08:20:24;16.50;99.90
21950;DHT22;11139;51.284;7.226;2023-08-01T08:22:50;16.40;99.90
21950;DHT22;11139;51.284;7.226;2023-08-01T08:25:15;16.40;99.90
21950;DHT22;11139;51.284;7.226;2023-08-01T08:27:41;16.40;99.90
21950;DHT22;11139;51.284;7.226;2023-08-01T08:30:06;16.40;99.90
21950;DHT22;11139;51.284;7.226;2023-08-01T08:32:32;16.40;99.90
21950;DHT22;11139;51.284;7.226;2023-08-01T08:34:57;16.40;99.90
21950;DHT22;11139;51.284;7.226;2023-08-01T08:37:23;16.40;99.90
21950;DHT22;11139;51.284;7.226;2023-08-01T08:39:48;16.40;99.90
21950;DHT22;11139;51.284;7.226;2023-08-01T08:42:14;16.40;99.90
21950;DHT22;11139;51.284;7.226;2023-08-01T08:44:43;16.40;99.90
21950;DHT22;11139;51.284;7.226;2023-08-01T08:47:09;16.40;99.90
21950;DHT22;11139;51.284;7.226;2023-08-01T08:49:35;16.50;99.90
21950;DHT22;11139;51.284;7.226;2023-08-01T08:52:02;16.40;99.90
21950;DHT22;11139;51.284;7.226;2023-08-01T08:54:28;16.40;99.90
21950;DHT22;11139;51.284;7.226;2023-08-01T08:56:55;16.50;99.90
21950;DHT22;11139;51.284;7.226;2023-08-01T08:59:20;16.40;99.90
21950;DHT22;11139;51.284;7.226;2023-08-01T09:01:46;16.40;99.90
21950;DHT22;11139;51.284;7.226;2023-08-01T09:04:12;16.40;99.90
21950;DHT22;11139;51.284;7.226;2023-08-01T09:06:40;16.40;99.90
21950;DHT22;11139;51.284;7.226;2023-08-01T09:09:10;16.50;99.90
21950;DHT22;11139;51.284;7.226;2023-08-01T09:14:08;16.50;99.90
21950;DHT22;11139;51.284;7.226;2023-08-01T09:16:34;16.50;99.90
21950;DHT22;11139;51.284;7.226;2023-08-01T09:19:00;16.50;99.90
21950;DHT22;11139;51.284;7.226;2023-08-01T09:21:25;16.50;99.90
21950;DHT22;11139;51.284;7.226;2023-08-01T09:23:51;16.50;99.90
21950;DHT22;11139;51.284;7.226;2023-08-01T09:26:18;16.50;99.90
21950;DHT22;11139;51.284;7.226;2023-08-01T09:28:44;16.50;99.90
21950;DHT22;11139;51.284;7.226;2023-08-01T09:31:25;16.50;99.90
21950;DHT22;11139;51.284;7.226;2023-08-01T09:33:51;16.40;99.90
21950;DHT22;11139;51.284;7.226;2023-08-01T09:36:20;16.50;99.90
21950;DHT22;11139;51.284;7.226;2023-08-01T09:38:46;16.50;99.90
21950;DHT22;11139;51.284;7.226;2023-08-01T09:41:16;16.50;99.90
21950;DHT22;11139;51.284;7.226;2023-08-01T09:43:42;16.50;99.90
21950;DHT22;11139;51.284;7.226;2023-08-01T09:46:07;16.50;99.90
21950;DHT22;11139;51.284;7.226;2023-08-01T09:48:33;16.50;99.90
21950;DHT22;11139;51.284;7.226;2023-08-01T09:51:08;16.50;99.90
21950;DHT22;11139;51.284;7.226;2023-08-01T09:53:34;16.50;99.90
21950;DHT22;11139;51.284;7.226;2023-08-01T09:56:00;16.50;99.90
21950;DHT22;11139;51.284;7.226;2023-08-01T09:58:29;16.50;99.90
21950;DHT22;11139;51.284;7.226;2023-08-01T10:00:56;16.50;99.90
21950;DHT22;11139;51.284;7.226;2023-08-01T10:03:22;16.50;99.90
21950;DHT22;11139;51.284;7.226;2023-08-01T10:05:48;16.50;99.90
21950;DHT22;11139;51.284;7.226;2023-08-01T10:08:13;16.50;99.90
21950;DHT22;11139;51.284;7.226;2023-08-01T10:10:39;16.50;99.90
21950;DHT22;11139;51.284;7.226;2023-08-01T10:13:06;16.50;99.90
21950;DHT22;11139;51.284;7.226;2023-08-01T10:15:32;16.50;99.90
21950;DHT22;11139;51.284;7.226;2023-08-01T10:17:57;16.50;99.90
21950;DHT22;11139;51.284;7.226;2023-08-01T10:20:23;16.50;99.90
21950;DHT22;11139;51.284;7.226;2023-08-01T10:22:49;16.50;99.90
21950;DHT22;11139;51.284;7.226;2023-08-01T10:25:16;16.60;99.90
21950;DHT22;11139;51.284;7.226;2023-08-01T10:27:41;16.50;99.90
21950;DHT22;11139;51.284;7.226;2023-08-01T10:30:07;16.50;99.90
21950;DHT22;11139;51.284;7.226;2023-08-01T10:32:39;16.50;99.90
21950;DHT22;11139;51.284;7.226;2023-08-01T10:35:05;16.60;99.90
21950;DHT22;11139;51.284;7.226;2023-08-01T10:37:44;16.50;99.90
21950;DHT22;11139;51.284;7.226;2023-08-01T10:40:10;16.50;99.90
21950;DHT22;11139;51.284;7.226;2023-08-01T10:45:05;16.50;99.90
21950;DHT22;11139;51.284;7.226;2023-08-01T10:47:31;16.50;99.90
21950;DHT22;11139;51.284;7.226;2023-08-01T10:49:57;16.50;99.90
21950;DHT22;11139;51.284;7.226;2023-08-01T10:52:23;16.60;99.90
21950;DHT22;11139;51.284;7.226;2023-08-01T10:54:56;16.50;99.90
21950;DHT22;11139;51.284;7.226;2023-08-01T10:57:21;16.50;99.90
21950;DHT22;11139;51.284;7.226;2023-08-01T10:59:47;16.60;99.90
21950;DHT22;11139;51.284;7.226;2023-08-01T11:02:19;16.50;99.90
21950;DHT22;11139;51.284;7.226;2023-08-01T11:04:44;16.50;99.90
21950;DHT22;11139;51.284;7.226;2023-08-01T11:07:19;16.60;99.90
21950;DHT22;11139;51.284;7.226;2023-08-01T11:09:45;16.60;99.90
21950;DHT22;11139;51.284;7.226;2023-08-01T11:12:10;16.60;99.90
21950;DHT22;11139;51.284;7.226;2023-08-01T11:14:36;16.60;99.90
21950;DHT22;11139;51.284;7.226;2023-08-01T11:17:02;16.60;99.90
21950;DHT22;11139;51.284;7.226;2023-08-01T11:19:29;16.60;99.90
21950;DHT22;11139;51.284;7.226;2023-08-01T11:21:55;16.60;99.90
21950;DHT22;11139;51.284;7.226;2023-08-01T11:24:22;16.60;99.90
21950;DHT22;11139;51.284;7.226;2023-08-01T11:26:48;16.60;99.90
21950;DHT22;11139;51.284;7.226;2023-08-01T11:29:14;16.60;99.90
21950;DHT22;11139;51.284;7.226;2023-08-01T11:31:40;16.60;99.90
21950;DHT22;11139;51.284;7.226;2023-08-01T11:34:06;16.60;99.90
21950;DHT22;11139;51.284;7.226;2023-08-01T11:36:33;16.60;99.90
21950;DHT22;11139;51.284;7.226;2023-08-01T11:38:59;16.60;99.90
21950;DHT22;11139;51.284;7.226;2023-08-01T11:41:26;16.60;99.90
21950;DHT22;11139;51.284;7.226;2023-08-01T11:43:52;16.50;99.90
21950;DHT22;11139;51.284;7.226;2023-08-01T11:46:20;16.60;99.90
21950;DHT22;11139;51.284;7.226;2023-08-01T11:48:46;16.50;99.90
21950;DHT22;11139;51.284;7.226;2023-08-01T11:51:12;16.60;99.90
21950;DHT22;11139;51.284;7.226;2023-08-01T11:53:37;16.60;99.90
21950;DHT22;11139;51.284;7.226;2023-08-01T11:56:07;16.60;99.90
21950;DHT22;11139;51.284;7.226;2023-08-01T12:01:16;16.60;99.90
21950;DHT22;11139;51.284;7.226;2023-08-01T12:03:45;16.60;99.90
21950;DHT22;11139;51.284;7.226;2023-08-01T12:06:11;16.60;99.90
21950;DHT22;11139;51.284;7.226;2023-08-01T12:08:38;16.60;99.90
21950;DHT22;11139;51.284;7.226;2023-08-01T12:11:04;16.60;99.90
21950;DHT22;11139;51.284;7.226;2023-08-01T12:13:29;16.60;99.90
21950;DHT22;11139;51.284;7.226;2023-08-01T12:15:56;16.60;99.90
21950;DHT22;11139;51.284;7.226;2023-08-01T12:20:47;16.50;99.90
21950;DHT22;11139;51.284;7.226;2023-08-01T12:23:13;16.50;99.90
21950;DHT22;11139;51.284;7.226;2023-08-01T12:25:38;16.50;99.90
21950;DHT22;11139;51.284;7.226;2023-08-01T12:28:04;16.50;99.90
21950;DHT22;11139;51.284;7.226;2023-08-01T12:30:30;16.50;99.90
21950;DHT22;11139;51.284;7.226;2023-08-01T12:32:55;16.50;99.90
21950;DHT22;11139;51.284;7.226;2023-08-01T12:35:21;16.50;99.90
21950;DHT22;11139;51.284;7.226;2023-08-01T12:37:46;16.40;99.90
21950;DHT22;11139;51.284;7.226;2023-08-01T12:40:12;16.40;99.90
21950;DHT22;11139;51.284;7.226;2023-08-01T12:42:37;16.40;99.90
21950;DHT22;11139;51.284;7.226;2023-08-01T12:45:02;16.40;99.90
21950;DHT22;11139;51.284;7.226;2023-08-01T12:47:28;16.40;99.90
21950;DHT22;11139;51.284;7.226;2023-08-01T12:49:54;16.40;99.90
21950;DHT22;11139;51.284;7.226;2023-08-01T12:52:23;16.40;99.90
21950;DHT22;11139;51.284;7.226;2023-08-01T12:54:50;16.40;99.90
21950;DHT22;11139;51.284;7.226;2023-08-01T12:57:15;16.40;99.90
21950;DHT22;11139;51.284;7.226;2023-08-01T12:59:41;16.40;99.90
21950;DHT22;11139;51.284;7.226;2023-08-01T13:02:06;16.50;99.90
21950;DHT22;11139;51.284;7.226;2023-08-01T13:04:36;16.40;99.90
21950;DHT22;11139;51.284;7.226;2023-08-01T13:07:02;16.50;99.90
21950;DHT22;11139;51.284;7.226;2023-08-01T13:09:27;16.50;99.90
21950;DHT22;11139;51.284;7.226;2023-08-01T13:11:53;16.50;99.90
21950;DHT22;11139;51.284;7.226;2023-08-01T13:14:18;16.50;99.90
21950;DHT22;11139;51.284;7.226;2023-08-01T13:16:44;16.60;99.90
21950;DHT22;11139;51.284;7.226;2023-08-01T13:19:09;16.60;99.90
21950;DHT22;11139;51.284;7.226;2023-08-01T13:21:35;16.70;99.90
21950;DHT22;11139;51.284;7.226;2023-08-01T13:24:00;16.70;99.90
21950;DHT22;11139;51.284;7.226;2023-08-01T13:26:30;16.80;99.90
21950;DHT22;11139;51.284;7.226;2023-08-01T13:28:56;16.80;99.90
21950;DHT22;11139;51.284;7.226;2023-08-01T13:31:21;16.80;99.90
21950;DHT22;11139;51.284;7.226;2023-08-01T13:33:47;16.80;99.90
21950;DHT22;11139;51.284;7.226;2023-08-01T13:36:13;16.90;99.90
21950;DHT22;11139;51.284;7.226;2023-08-01T13:38:38;16.90;99.90
21950;DHT22;11139;51.284;7.226;2023-08-01T13:41:04;16.90;99.90
21950;DHT22;11139;51.284;7.226;2023-08-01T13:43:29;16.90;99.90
21950;DHT22;11139;51.284;7.226;2023-08-01T13:45:55;16.90;99.90
21950;DHT22;11139;51.284;7.226;2023-08-01T13:48:21;16.90;99.90
21950;DHT22;11139;51.284;7.226;2023-08-01T13:50:46;16.90;99.90
21950;DHT22;11139;51.284;7.226;2023-08-01T13:53:12;16.90;99.90
21950;DHT22;11139;51.284;7.226;2023-08-01T13:55:39;16.90;99.90
21950;DHT22;11139;51.284;7.226;2023-08-01T13:58:05;16.90;99.90
21950;DHT22;11139;51.284;7.226;2023-08-01T14:00:31;16.90;99.90
21950;DHT22;11139;51.284;7.226;2023-08-01T14:02:56;16.90;99.90
21950;DHT22;11139;51.284;7.226;2023-08-01T14:05:24;16.90;99.90
21950;DHT22;11139;51.284;7.226;2023-08-01T14:07:50;16.90;99.90
21950;DHT22;11139;51.284;7.226;2023-08-01T14:10:15;16.90;99.90
21950;DHT22;11139;51.284;7.226;2023-08-01T14:12:41;16.80;99.90
21950;DHT22;11139;51.284;7.226;2023-08-01T14:15:07;16.90;99.90
21950;DHT22;11139;51.284;7.226;2023-08-01T14:17:32;17.00;99.90
21950;DHT22;11139;51.284;7.226;2023-08-01T14:19:58;17.10;99.90
21950;DHT22;11139;51.284;7.226;2023-08-01T14:22:24;17.10;99.90
21950;DHT22;11139;51.284;7.226;2023-08-01T14:24:49;17.20;99.90
21950;DHT22;11139;51.284;7.226;2023-08-01T14:27:15;17.30;99.90
21950;DHT22;11139;51.284;7.226;2023-08-01T14:29:40;17.30;99.90
21950;DHT22;11139;51.284;7.226;2023-08-01T14:32:06;17.50;99.90
21950;DHT22;11139;51.284;7.226;2023-08-01T14:34:31;17.50;99.90
21950;DHT22;11139;51.284;7.226;2023-08-01T14:36:57;17.50;99.90
21950;DHT22;11139;51.284;7.226;2023-08-01T14:39:23;17.50;99.90
21950;DHT22;11139;51.284;7.226;2023-08-01T14:41:49;17.50;99.90
21950;DHT22;11139;51.284;7.226;2023-08-01T14:44:14;17.60;99.90
21950;DHT22;11139;51.284;7.226;2023-08-01T14:46:40;17.60;99.90
21950;DHT22;11139;51.284;7.226;2023-08-01T14:49:05;17.60;99.90
21950;DHT22;11139;51.284;7.226;2023-08-01T14:51:31;17.60;99.90
21950;DHT22;11139;51.284;7.226;2023-08-01T14:53:56;17.70;99.90
21950;DHT22;11139;51.284;7.226;2023-08-01T14:56:22;17.60;99.90
21950;DHT22;11139;51.284;7.226;2023-08-01T14:58:47;17.70;99.90
21950;DHT22;11139;51.284;7.226;2023-08-01T15:01:13;17.70;99.90
21950;DHT22;11139;51.284;7.226;2023-08-01T15:03:39;17.70;99.90
21950;DHT22;11139;51.284;7.226;2023-08-01T15:06:05;17.70;99.90
21950;DHT22;11139;51.284;7.226;2023-08-01T15:08:30;17.60;99.90
21950;DHT22;11139;51.284;7.226;2023-08-01T15:10:56;17.70;99.90
21950;DHT22;11139;51.284;7.226;2023-08-01T15:13:21;17.70;99.90
21950;DHT22;11139;51.284;7.226;2023-08-01T15:15:47;17.70;99.90
21950;DHT22;11139;51.284;7.226;2023-08-01T15:18:12;17.70;99.90
21950;DHT22;11139;51.284;7.226;2023-08-01T15:20:38;17.70;99.90
21950;DHT22;11139;51.284;7.226;2023-08-01T15:23:06;17.70;99.90
21950;DHT22;11139;51.284;7.226;2023-08-01T15:25:31;17.70;99.90
21950;DHT22;11139;51.284;7.226;2023-08-01T15:27:57;17.60;99.90
21950;DHT22;11139;51.284;7.226;2023-08-01T15:30:22;17.60;99.90
21950;DHT22;11139;51.284;7.226;2023-08-01T15:32:48;17.60;99.90
21950;DHT22;11139;51.284;7.226;2023-08-01T15:35:13;17.60;99.90